Atascadero, California
Current Conditions -  °F | °C
As of 5:53 PM on Sunday 23 Nov 2014 (Local Time) from KPRB Reporting Station
Clear Clear  
Wind Chill: 57°   Ceiling: Unl
Heat Index: 57°   Visibility: 10mi
Dew Point: 35°   Wind: 8mph
Humidity: 44%   Direction: 110°ESE
Pressure: 30.24"   Gusts: NA
Location:  35.49°N, 120.66°W
Report Text: KPRB 240153Z AUTO 11007KT 10SM CLR 14/02 A3024 RMK AO2 SLP240 T01390017 TSNO
Loading
Personal Weather Stations






























Interactive Weather Map New forecast layout! Learn more

10-Day Weather Forecast

Advertisements
Track Severe Weather on mobile